Terminal Aerodrome Forecast
Issued by NWS

Home | Current Version | Previous Version | Text Only | Print | Product List | Glossary On
Versions: 1 2 3 4 5 6 7 8 9 10 11 12 13 14 15 16 17 18 19 20 21 22 23 24 25 26 27 28 29 30 31 32 33
000
FTAK31 PANC 291736
TAFAEN
TAF
PAEN 291736Z 2918/3018 VRB05KT P6SM SCT030 OVC060
      TEMPO 2918/2920 BKN030
     FM292100 24007KT P6SM VCSH SCT015 SCT040 BKN060
     FM300000 24007KT P6SM -SHRA SCT015 BKN040
     FM301000 VRB03KT P6SM VCFG BKN015=

USA.gov is the U.S. government's official web portal to all federal, state and local government web resources and services.